Energy Centaur — 2AJU3 — position and weather

sailwx.info

Track history (hours):
 
Tides and Currents Weather Stations Pressure Air Temp Water Temp Dewpoint Dewpoint Depression Visibility Wind Speed Wind Dir Waves Ship Positions

Energy Centaur

Last reported at 2017-Dec-03 13:34 UTC. Time now 2018-Feb-20 13:58 UTC.
Position N 36°01' W 005°13'.
Warning: this ship's position is months out of date.

Length 227 m; draft 13 m.

Type: Tanker. MMSI: 235060303.

Date/timePositionNaut miles runAvg speedWind from/ knotsBaromVisibWave heightAir tempDewpointWater temp
2017-Dec-03 13:34N 36°01' W 005°13'114.2
2017-Dec-03 13:30N 36°01' W 005°14'713.6
2017-Dec-03 13:00N 36°03' W 005°22'3 3.5
2017-Dec-03 12:15N 36°05' W 005°24'0 0.2
2017-Dec-03 12:00N 36°05' W 005°24'0 0.1
2017-Dec-03 11:27N 36°05' W 005°24'0 0.1
2017-Dec-03 11:00N 36°05' W 005°24'0 0.1
2017-Dec-03 07:57N 36°05' W 005°24'0 0.0
2017-Dec-03 07:27N 36°05' W 005°24'0 0.0
2017-Dec-03 07:00N 36°05' W 005°24'0 0.1
2017-Dec-03 06:30N 36°05' W 005°24'0 0.0
2017-Dec-03 06:00N 36°05' W 005°24'0 0.1
2017-Dec-03 05:21N 36°05' W 005°24'0 0.2
2017-Dec-03 04:51N 36°05' W 005°24'0 0.0
2017-Dec-03 04:30N 36°05' W 005°24'0 0.0
2017-Dec-03 04:00N 36°05' W 005°24'0 0.0
2017-Dec-03 03:00N 36°05' W 005°24'2 3.7
2017-Dec-03 02:30N 36°04' W 005°22'0 0.9
2017-Dec-03 02:00N 36°04' W 005°22'1 1.1
2017-Dec-03 01:31N 36°04' W 005°22'2 3.5
2017-Dec-03 01:00N 36°02' W 005°23'5 9.6
2017-Dec-03 00:31N 35°58' W 005°26'713.1
2017-Dec-02 23:59N 35°56' W 005°34'611.9
2017-Dec-02 23:30N 35°55' W 005°41'28610.2
2017-Dec-01 19:20N 38°54' W 010°22'412.4
2017-Dec-01 18:58N 38°59' W 010°22'  
2017-Nov-29 06:54N 49°49' W 003°26'513.1
2017-Nov-29 06:30N 49°51' W 003°19'612.9
2017-Nov-29 06:00N 49°54' W 003°11'612.6
2017-Nov-29 05:30N 49°58' W 003°02'612.0
2017-Nov-29 05:01N 49°60' W 002°54'611.9
2017-Nov-29 04:30N 50°01' W 002°45'611.7
2017-Nov-29 04:01N 50°03' W 002°36'611.4
2017-Nov-29 03:29N 50°04' W 002°27'1211.1
2017-Nov-29 02:24N 50°08' W 002°09'511.3
2017-Nov-29 01:59N 50°09' W 002°02'611.6
2017-Nov-29 01:30N 50°11' W 001°54'612.0
2017-Nov-29 01:00N 50°12' W 001°45'612.5
2017-Nov-29 00:30N 50°14' W 001°35'713.1
2017-Nov-29 00:01N 50°16' W 001°25'713.6
2017-Nov-28 23:30N 50°17' W 001°15'3314.2
2017-Nov-28 21:12N 50°26' W 000°25'313.8
2017-Nov-28 20:58N 50°27' W 000°21'613.6
2017-Nov-28 20:30N 50°29' W 000°11'713.3
2017-Nov-28 20:00N 50°30' W 000°01'713.0
2017-Nov-28 19:30N 50°32' E 000°09'612.8
2017-Nov-28 19:00N 50°33' E 000°19'612.6
2017-Nov-28 18:30N 50°35' E 000°28'612.1
2017-Nov-28 18:00N 50°37' E 000°37'612.2
2017-Nov-28 17:30N 50°41' E 000°45'612.1
2017-Nov-28 17:00N 50°44' E 000°52'612.1
2017-Nov-28 16:30N 50°49' E 000°59'1212.5
2017-Nov-28 15:35N 50°56' E 001°13'813.3
2017-Nov-28 15:00N 51°01' E 001°22'714.2
2017-Nov-28 14:30N 51°06' E 001°31'714.5
2017-Nov-28 14:00N 51°10' E 001°40'713.9
2017-Nov-28 13:30N 51°15' E 001°47'713.7
2017-Nov-28 13:00N 51°22' E 001°52'612.9
2017-Nov-28 12:30N 51°27' E 001°57'612.7
2017-Nov-28 12:00N 51°32' E 002°04'612.4
2017-Nov-28 11:30N 51°37' E 002°11'612.2
2017-Nov-28 11:00N 51°41' E 002°17'55311.2
2017-Nov-26 09:41N 60°51' E 004°17'210.9
2017-Nov-26 09:30N 60°52' E 004°20'3 6.9
2017-Nov-26 09:00N 60°52' E 004°27'4 8.6
2017-Nov-26 08:30N 60°52' E 004°36'510.7
2017-Nov-26 08:00N 60°51' E 004°47'612.2
2017-Nov-26 07:30N 60°50' E 004°59'3 5.5
2017-Nov-26 07:00N 60°48' E 005°03'0 0.0
2017-Nov-26 06:29N 60°48' E 005°03'0 0.0
2017-Nov-26 05:59N 60°48' E 005°03'0 0.0
2017-Nov-26 05:29N 60°48' E 005°03'0 0.0
2017-Nov-26 04:59N 60°48' E 005°03'0 0.0
2017-Nov-26 04:29N 60°48' E 005°03'0 0.0
2017-Nov-26 03:59N 60°48' E 005°03'0 0.0
2017-Nov-26 03:29N 60°48' E 005°03'0 0.0
2017-Nov-26 02:59N 60°48' E 005°03'0 0.0
2017-Nov-26 02:29N 60°48' E 005°03'0 0.0
2017-Nov-26 01:59N 60°48' E 005°03'0 0.0
2017-Nov-26 01:29N 60°48' E 005°03'0 0.0
2017-Nov-26 00:59N 60°48' E 005°03'0 0.0
2017-Nov-26 00:29N 60°48' E 005°03'0 0.0
2017-Nov-25 23:59N 60°48' E 005°03'0 0.0
2017-Nov-25 23:29N 60°48' E 005°03'0 0.0
2017-Nov-25 22:59N 60°48' E 005°03'0 0.0
2017-Nov-25 22:29N 60°48' E 005°03'0 0.0
2017-Nov-25 21:59N 60°48' E 005°03'0 0.0
2017-Nov-25 21:29N 60°48' E 005°03'0 0.0
2017-Nov-25 20:59N 60°48' E 005°03'0 0.0
2017-Nov-25 20:29N 60°48' E 005°03'0 0.0
2017-Nov-25 19:59N 60°48' E 005°03'0 0.0
2017-Nov-25 19:29N 60°48' E 005°03'0 0.0
2017-Nov-25 18:59N 60°48' E 005°03'0 0.0
2017-Nov-25 18:29N 60°48' E 005°03'0 0.0
2017-Nov-25 17:59N 60°48' E 005°03'0 0.0
2017-Nov-25 17:29N 60°48' E 005°03'0 0.0
2017-Nov-25 16:59N 60°48' E 005°03'0 0.0
2017-Nov-25 16:29N 60°48' E 005°03'0 0.0
2017-Nov-25 15:59N 60°48' E 005°03'0 0.0
2017-Nov-25 15:29N 60°48' E 005°03'0 0.1
2017-Nov-25 14:59N 60°48' E 005°03'1 1.4
2017-Nov-25 14:29N 60°49' E 005°03'0 0.2
2017-Nov-25 13:59N 60°49' E 005°02'0 0.0
2017-Nov-25 13:29N 60°49' E 005°02'0 0.0
2017-Nov-25 12:59N 60°49' E 005°02'0 0.0
2017-Nov-25 12:29N 60°49' E 005°02'0 0.0
2017-Nov-25 11:59N 60°49' E 005°02'0 0.0
2017-Nov-25 11:29N 60°49' E 005°02'0 0.0
2017-Nov-25 10:59N 60°49' E 005°02'0 0.0
2017-Nov-25 10:29N 60°49' E 005°02'0 0.0
2017-Nov-25 09:59N 60°49' E 005°02'0 0.0
2017-Nov-25 09:29N 60°49' E 005°02'0 0.0
2017-Nov-25 08:59N 60°49' E 005°02'0 0.0
2017-Nov-25 08:29N 60°49' E 005°02'0 0.0
2017-Nov-25 07:59N 60°49' E 005°02'0 0.0
2017-Nov-25 07:29N 60°49' E 005°02'0 0.0
2017-Nov-25 06:59N 60°49' E 005°02'0 0.0
2017-Nov-25 06:29N 60°49' E 005°02'0 0.0
2017-Nov-25 05:59N 60°49' E 005°02'0 0.0
2017-Nov-25 05:29N 60°49' E 005°02'0 0.0
2017-Nov-25 04:59N 60°49' E 005°02'0 0.0
2017-Nov-25 04:29N 60°49' E 005°02'0 0.0
2017-Nov-25 03:59N 60°49' E 005°02'0 0.0
2017-Nov-25 03:29N 60°49' E 005°02'0 0.0
2017-Nov-25 02:59N 60°49' E 005°02'0 0.0
2017-Nov-25 02:29N 60°49' E 005°02'0 0.0
2017-Nov-25 01:56N 60°49' E 005°02'0 0.0
2017-Nov-25 01:29N 60°49' E 005°02'0 0.0
2017-Nov-25 00:59N 60°49' E 005°02'0 0.0
2017-Nov-25 00:29N 60°49' E 005°02'0 0.0
2017-Nov-24 23:59N 60°49' E 005°02'0 0.0
2017-Nov-24 23:29N 60°49' E 005°02'0 0.0
2017-Nov-24 22:59N 60°49' E 005°02'0 0.0
2017-Nov-24 22:29N 60°49' E 005°02'0 0.0
2017-Nov-24 21:59N 60°49' E 005°02'0 0.0
2017-Nov-24 21:29N 60°49' E 005°02'0 0.0
2017-Nov-24 20:59N 60°49' E 005°02'0 0.0
2017-Nov-24 20:29N 60°49' E 005°02'0 0.0
2017-Nov-24 19:59N 60°49' E 005°02'0 0.0
2017-Nov-24 19:29N 60°49' E 005°02'0 0.0
2017-Nov-24 18:59N 60°49' E 005°02'0 0.0
2017-Nov-24 18:29N 60°49' E 005°02'0 0.0
2017-Nov-24 17:59N 60°49' E 005°02'0 0.0
2017-Nov-24 17:29N 60°49' E 005°02'0 0.0
2017-Nov-24 16:59N 60°49' E 005°02'0 0.0
2017-Nov-24 16:29N 60°49' E 005°02'0 0.0
2017-Nov-24 15:59N 60°49' E 005°02'0 0.0
2017-Nov-24 15:29N 60°49' E 005°02'0 0.0
2017-Nov-24 14:59N 60°49' E 005°02'0 0.0
2017-Nov-24 14:29N 60°49' E 005°02'0 0.0
2017-Nov-24 13:59N 60°49' E 005°02'0 0.0
2017-Nov-24 13:29N 60°49' E 005°02'0 0.0
2017-Nov-24 12:59N 60°49' E 005°02'0 0.0
2017-Nov-24 12:29N 60°49' E 005°02'0 0.0
2017-Nov-24 11:56N 60°49' E 005°02'0 0.0
2017-Nov-24 11:29N 60°49' E 005°02'0 0.0
2017-Nov-24 10:59N 60°49' E 005°02'0 0.0
2017-Nov-24 10:29N 60°49' E 005°02'0 0.0
2017-Nov-24 09:56N 60°49' E 005°02'0 0.0
2017-Nov-24 09:29N 60°49' E 005°02'0 0.0
2017-Nov-24 08:59N 60°49' E 005°02'0 0.0
2017-Nov-24 08:29N 60°49' E 005°02'0 0.0
2017-Nov-24 07:59N 60°49' E 005°02'0 0.0
2017-Nov-24 07:29N 60°49' E 005°02'0 0.0
2017-Nov-24 06:59N 60°49' E 005°02'0 0.0
2017-Nov-24 06:29N 60°49' E 005°02'0 0.0
2017-Nov-24 05:59N 60°49' E 005°02'0 0.0
2017-Nov-24 05:29N 60°49' E 005°02'0 0.0
2017-Nov-24 04:59N 60°49' E 005°02'0 0.0
2017-Nov-24 04:29N 60°49' E 005°02'0 0.0
2017-Nov-24 03:59N 60°49' E 005°02'0 0.0
2017-Nov-24 03:29N 60°49' E 005°02'0 0.0
2017-Nov-24 02:59N 60°49' E 005°02'0 0.0
2017-Nov-24 02:29N 60°49' E 005°02'0 0.0
2017-Nov-24 01:59N 60°49' E 005°02'0 0.0
2017-Nov-24 01:29N 60°49' E 005°02'0 0.0
2017-Nov-24 00:59N 60°49' E 005°02'0 0.0
2017-Nov-24 00:29N 60°49' E 005°02'0 0.0
2017-Nov-23 23:59N 60°49' E 005°02'0 0.0
2017-Nov-23 23:29N 60°49' E 005°02'0 0.0
2017-Nov-23 22:59N 60°49' E 005°02'0 0.0
2017-Nov-23 22:29N 60°49' E 005°02'0 0.0
2017-Nov-23 21:59N 60°49' E 005°02'0 0.0
2017-Nov-23 21:29N 60°49' E 005°02'0 0.0
2017-Nov-23 20:59N 60°49' E 005°02'0 0.0
2017-Nov-23 20:29N 60°49' E 005°02'0 0.0
2017-Nov-23 19:59N 60°49' E 005°02'0 0.0
2017-Nov-23 19:29N 60°49' E 005°02'0 0.0
2017-Nov-23 18:59N 60°49' E 005°02'0 0.0
2017-Nov-23 18:29N 60°49' E 005°02'0 0.0
2017-Nov-23 17:59N 60°49' E 005°02'0 0.0
2017-Nov-23 17:29N 60°49' E 005°02'0 0.0
2017-Nov-23 16:59N 60°49' E 005°02'0 0.0
2017-Nov-23 16:29N 60°49' E 005°02'0 0.0
2017-Nov-23 15:59N 60°49' E 005°02'0 0.0
2017-Nov-23 15:26N 60°49' E 005°02'0 0.0
2017-Nov-23 14:59N 60°49' E 005°02'0 0.0
2017-Nov-23 14:29N 60°49' E 005°02'0 0.0
2017-Nov-23 13:59N 60°49' E 005°02'  
Track history (hours):
 
Tides and Currents Weather Stations Pressure Air Temp Water Temp Dewpoint Dewpoint Depression Visibility Wind Speed Wind Dir Waves Ship Positions

Energy Centaur

Last reported at 2017-Dec-03 13:34 UTC. Time now 2018-Feb-20 13:58 UTC.
Position N 36°01' W 005°13'.
Warning: this ship's position is months out of date.

Length 227 m; draft 13 m.

Type: Tanker. MMSI: 235060303.

Date/timePositionNaut miles runAvg speedWind from/ knotsBaromVisibWave heightAir tempDewpointWater temp
2017-Dec-03 13:34N 36°01' W 005°13'114.2
2017-Dec-03 13:30N 36°01' W 005°14'713.6
2017-Dec-03 13:00N 36°03' W 005°22'3 3.5
2017-Dec-03 12:15N 36°05' W 005°24'0 0.2
2017-Dec-03 12:00N 36°05' W 005°24'0 0.1
2017-Dec-03 11:27N 36°05' W 005°24'0 0.1
2017-Dec-03 11:00N 36°05' W 005°24'0 0.1
2017-Dec-03 07:57N 36°05' W 005°24'0 0.0
2017-Dec-03 07:27N 36°05' W 005°24'0 0.0
2017-Dec-03 07:00N 36°05' W 005°24'0 0.1
2017-Dec-03 06:30N 36°05' W 005°24'0 0.0
2017-Dec-03 06:00N 36°05' W 005°24'0 0.1
2017-Dec-03 05:21N 36°05' W 005°24'0 0.2
2017-Dec-03 04:51N 36°05' W 005°24'0 0.0
2017-Dec-03 04:30N 36°05' W 005°24'0 0.0
2017-Dec-03 04:00N 36°05' W 005°24'0 0.0
2017-Dec-03 03:00N 36°05' W 005°24'2 3.7
2017-Dec-03 02:30N 36°04' W 005°22'0 0.9
2017-Dec-03 02:00N 36°04' W 005°22'1 1.1
2017-Dec-03 01:31N 36°04' W 005°22'2 3.5
2017-Dec-03 01:00N 36°02' W 005°23'5 9.6
2017-Dec-03 00:31N 35°58' W 005°26'713.1
2017-Dec-02 23:59N 35°56' W 005°34'611.9
2017-Dec-02 23:30N 35°55' W 005°41'28610.2
2017-Dec-01 19:20N 38°54' W 010°22'412.4
2017-Dec-01 18:58N 38°59' W 010°22'  
2017-Nov-29 06:54N 49°49' W 003°26'513.1
2017-Nov-29 06:30N 49°51' W 003°19'612.9
2017-Nov-29 06:00N 49°54' W 003°11'612.6
2017-Nov-29 05:30N 49°58' W 003°02'612.0
2017-Nov-29 05:01N 49°60' W 002°54'611.9
2017-Nov-29 04:30N 50°01' W 002°45'611.7
2017-Nov-29 04:01N 50°03' W 002°36'611.4
2017-Nov-29 03:29N 50°04' W 002°27'1211.1
2017-Nov-29 02:24N 50°08' W 002°09'511.3
2017-Nov-29 01:59N 50°09' W 002°02'611.6
2017-Nov-29 01:30N 50°11' W 001°54'612.0
2017-Nov-29 01:00N 50°12' W 001°45'612.5
2017-Nov-29 00:30N 50°14' W 001°35'713.1
2017-Nov-29 00:01N 50°16' W 001°25'713.6
2017-Nov-28 23:30N 50°17' W 001°15'3314.2
2017-Nov-28 21:12N 50°26' W 000°25'313.8
2017-Nov-28 20:58N 50°27' W 000°21'613.6
2017-Nov-28 20:30N 50°29' W 000°11'713.3
2017-Nov-28 20:00N 50°30' W 000°01'713.0
2017-Nov-28 19:30N 50°32' E 000°09'612.8
2017-Nov-28 19:00N 50°33' E 000°19'612.6
2017-Nov-28 18:30N 50°35' E 000°28'612.1
2017-Nov-28 18:00N 50°37' E 000°37'612.2
2017-Nov-28 17:30N 50°41' E 000°45'612.1
2017-Nov-28 17:00N 50°44' E 000°52'612.1
2017-Nov-28 16:30N 50°49' E 000°59'1212.5
2017-Nov-28 15:35N 50°56' E 001°13'813.3
2017-Nov-28 15:00N 51°01' E 001°22'714.2
2017-Nov-28 14:30N 51°06' E 001°31'714.5
2017-Nov-28 14:00N 51°10' E 001°40'713.9
2017-Nov-28 13:30N 51°15' E 001°47'713.7
2017-Nov-28 13:00N 51°22' E 001°52'612.9
2017-Nov-28 12:30N 51°27' E 001°57'612.7
2017-Nov-28 12:00N 51°32' E 002°04'612.4
2017-Nov-28 11:30N 51°37' E 002°11'612.2
2017-Nov-28 11:00N 51°41' E 002°17'55311.2
2017-Nov-26 09:41N 60°51' E 004°17'210.9
2017-Nov-26 09:30N 60°52' E 004°20'3 6.9
2017-Nov-26 09:00N 60°52' E 004°27'4 8.6
2017-Nov-26 08:30N 60°52' E 004°36'510.7
2017-Nov-26 08:00N 60°51' E 004°47'612.2
2017-Nov-26 07:30N 60°50' E 004°59'3 5.5
2017-Nov-26 07:00N 60°48' E 005°03'0 0.0
2017-Nov-26 06:29N 60°48' E 005°03'0 0.0
2017-Nov-26 05:59N 60°48' E 005°03'0 0.0
2017-Nov-26 05:29N 60°48' E 005°03'0 0.0
2017-Nov-26 04:59N 60°48' E 005°03'0 0.0
2017-Nov-26 04:29N 60°48' E 005°03'0 0.0
2017-Nov-26 03:59N 60°48' E 005°03'0 0.0
2017-Nov-26 03:29N 60°48' E 005°03'0 0.0
2017-Nov-26 02:59N 60°48' E 005°03'0 0.0
2017-Nov-26 02:29N 60°48' E 005°03'0 0.0
2017-Nov-26 01:59N 60°48' E 005°03'0 0.0
2017-Nov-26 01:29N 60°48' E 005°03'0 0.0
2017-Nov-26 00:59N 60°48' E 005°03'0 0.0
2017-Nov-26 00:29N 60°48' E 005°03'0 0.0
2017-Nov-25 23:59N 60°48' E 005°03'0 0.0
2017-Nov-25 23:29N 60°48' E 005°03'0 0.0
2017-Nov-25 22:59N 60°48' E 005°03'0 0.0
2017-Nov-25 22:29N 60°48' E 005°03'0 0.0
2017-Nov-25 21:59N 60°48' E 005°03'0 0.0
2017-Nov-25 21:29N 60°48' E 005°03'0 0.0
2017-Nov-25 20:59N 60°48' E 005°03'0 0.0
2017-Nov-25 20:29N 60°48' E 005°03'0 0.0
2017-Nov-25 19:59N 60°48' E 005°03'0 0.0
2017-Nov-25 19:29N 60°48' E 005°03'0 0.0
2017-Nov-25 18:59N 60°48' E 005°03'0 0.0
2017-Nov-25 18:29N 60°48' E 005°03'0 0.0
2017-Nov-25 17:59N 60°48' E 005°03'0 0.0
2017-Nov-25 17:29N 60°48' E 005°03'0 0.0
2017-Nov-25 16:59N 60°48' E 005°03'0 0.0
2017-Nov-25 16:29N 60°48' E 005°03'0 0.0
2017-Nov-25 15:59N 60°48' E 005°03'0 0.0
2017-Nov-25 15:29N 60°48' E 005°03'0 0.1
2017-Nov-25 14:59N 60°48' E 005°03'1 1.4
2017-Nov-25 14:29N 60°49' E 005°03'0 0.2
2017-Nov-25 13:59N 60°49' E 005°02'0 0.0
2017-Nov-25 13:29N 60°49' E 005°02'0 0.0
2017-Nov-25 12:59N 60°49' E 005°02'0 0.0
2017-Nov-25 12:29N 60°49' E 005°02'0 0.0
2017-Nov-25 11:59N 60°49' E 005°02'0 0.0
2017-Nov-25 11:29N 60°49' E 005°02'0 0.0
2017-Nov-25 10:59N 60°49' E 005°02'0 0.0
2017-Nov-25 10:29N 60°49' E 005°02'0 0.0
2017-Nov-25 09:59N 60°49' E 005°02'0 0.0
2017-Nov-25 09:29N 60°49' E 005°02'0 0.0
2017-Nov-25 08:59N 60°49' E 005°02'0 0.0
2017-Nov-25 08:29N 60°49' E 005°02'0 0.0
2017-Nov-25 07:59N 60°49' E 005°02'0 0.0
2017-Nov-25 07:29N 60°49' E 005°02'0 0.0
2017-Nov-25 06:59N 60°49' E 005°02'0 0.0
2017-Nov-25 06:29N 60°49' E 005°02'0 0.0
2017-Nov-25 05:59N 60°49' E 005°02'0 0.0
2017-Nov-25 05:29N 60°49' E 005°02'0 0.0
2017-Nov-25 04:59N 60°49' E 005°02'0 0.0
2017-Nov-25 04:29N 60°49' E 005°02'0 0.0
2017-Nov-25 03:59N 60°49' E 005°02'0 0.0
2017-Nov-25 03:29N 60°49' E 005°02'0 0.0
2017-Nov-25 02:59N 60°49' E 005°02'0 0.0
2017-Nov-25 02:29N 60°49' E 005°02'0 0.0
2017-Nov-25 01:56N 60°49' E 005°02'0 0.0
2017-Nov-25 01:29N 60°49' E 005°02'0 0.0
2017-Nov-25 00:59N 60°49' E 005°02'0 0.0
2017-Nov-25 00:29N 60°49' E 005°02'0 0.0
2017-Nov-24 23:59N 60°49' E 005°02'0 0.0
2017-Nov-24 23:29N 60°49' E 005°02'0 0.0
2017-Nov-24 22:59N 60°49' E 005°02'0 0.0
2017-Nov-24 22:29N 60°49' E 005°02'0 0.0
2017-Nov-24 21:59N 60°49' E 005°02'0 0.0
2017-Nov-24 21:29N 60°49' E 005°02'0 0.0
2017-Nov-24 20:59N 60°49' E 005°02'0 0.0
2017-Nov-24 20:29N 60°49' E 005°02'0 0.0
2017-Nov-24 19:59N 60°49' E 005°02'0 0.0
2017-Nov-24 19:29N 60°49' E 005°02'0 0.0
2017-Nov-24 18:59N 60°49' E 005°02'0 0.0
2017-Nov-24 18:29N 60°49' E 005°02'0 0.0
2017-Nov-24 17:59N 60°49' E 005°02'0 0.0
2017-Nov-24 17:29N 60°49' E 005°02'0 0.0
2017-Nov-24 16:59N 60°49' E 005°02'0 0.0
2017-Nov-24 16:29N 60°49' E 005°02'0 0.0
2017-Nov-24 15:59N 60°49' E 005°02'0 0.0
2017-Nov-24 15:29N 60°49' E 005°02'0 0.0
2017-Nov-24 14:59N 60°49' E 005°02'0 0.0
2017-Nov-24 14:29N 60°49' E 005°02'0 0.0
2017-Nov-24 13:59N 60°49' E 005°02'0 0.0
2017-Nov-24 13:29N 60°49' E 005°02'0 0.0
2017-Nov-24 12:59N 60°49' E 005°02'0 0.0
2017-Nov-24 12:29N 60°49' E 005°02'0 0.0
2017-Nov-24 11:56N 60°49' E 005°02'0 0.0
2017-Nov-24 11:29N 60°49' E 005°02'0 0.0
2017-Nov-24 10:59N 60°49' E 005°02'0 0.0
2017-Nov-24 10:29N 60°49' E 005°02'0 0.0
2017-Nov-24 09:56N 60°49' E 005°02'0 0.0
2017-Nov-24 09:29N 60°49' E 005°02'0 0.0
2017-Nov-24 08:59N 60°49' E 005°02'0 0.0
2017-Nov-24 08:29N 60°49' E 005°02'0 0.0
2017-Nov-24 07:59N 60°49' E 005°02'0 0.0
2017-Nov-24 07:29N 60°49' E 005°02'0 0.0
2017-Nov-24 06:59N 60°49' E 005°02'0 0.0
2017-Nov-24 06:29N 60°49' E 005°02'0 0.0
2017-Nov-24 05:59N 60°49' E 005°02'0 0.0
2017-Nov-24 05:29N 60°49' E 005°02'0 0.0
2017-Nov-24 04:59N 60°49' E 005°02'0 0.0
2017-Nov-24 04:29N 60°49' E 005°02'0 0.0
2017-Nov-24 03:59N 60°49' E 005°02'0 0.0
2017-Nov-24 03:29N 60°49' E 005°02'0 0.0
2017-Nov-24 02:59N 60°49' E 005°02'0 0.0
2017-Nov-24 02:29N 60°49' E 005°02'0 0.0
2017-Nov-24 01:59N 60°49' E 005°02'0 0.0
2017-Nov-24 01:29N 60°49' E 005°02'0 0.0
2017-Nov-24 00:59N 60°49' E 005°02'0 0.0
2017-Nov-24 00:29N 60°49' E 005°02'0 0.0
2017-Nov-23 23:59N 60°49' E 005°02'0 0.0
2017-Nov-23 23:29N 60°49' E 005°02'0 0.0
2017-Nov-23 22:59N 60°49' E 005°02'0 0.0
2017-Nov-23 22:29N 60°49' E 005°02'0 0.0
2017-Nov-23 21:59N 60°49' E 005°02'0 0.0
2017-Nov-23 21:29N 60°49' E 005°02'0 0.0
2017-Nov-23 20:59N 60°49' E 005°02'0 0.0
2017-Nov-23 20:29N 60°49' E 005°02'0 0.0
2017-Nov-23 19:59N 60°49' E 005°02'0 0.0
2017-Nov-23 19:29N 60°49' E 005°02'0 0.0
2017-Nov-23 18:59N 60°49' E 005°02'0 0.0
2017-Nov-23 18:29N 60°49' E 005°02'0 0.0
2017-Nov-23 17:59N 60°49' E 005°02'0 0.0
2017-Nov-23 17:29N 60°49' E 005°02'0 0.0
2017-Nov-23 16:59N 60°49' E 005°02'0 0.0
2017-Nov-23 16:29N 60°49' E 005°02'0 0.0
2017-Nov-23 15:59N 60°49' E 005°02'0 0.0
2017-Nov-23 15:26N 60°49' E 005°02'0 0.0
2017-Nov-23 14:59N 60°49' E 005°02'0 0.0
2017-Nov-23 14:29N 60°49' E 005°02'0 0.0
2017-Nov-23 13:59N 60°49' E 005°02'  

Dump ship's entire track history